createdAt,value
2022-09-23T00:01:01.741Z,98599.25
2022-09-23T00:04:05.299Z,98586.16
2022-09-23T00:07:09.332Z,98507.72
2022-09-23T00:10:14.555Z,98585.31
2022-09-23T00:13:17.761Z,98583.78
2022-09-23T00:16:23.115Z,98579.56
2022-09-23T00:19:26.250Z,98567.72
2022-09-23T00:22:29.460Z,98569.41
2022-09-23T00:25:34.036Z,98579.50
2022-09-23T00:28:38.575Z,98581.31
2022-09-23T00:31:42.789Z,98572.88
2022-09-23T00:34:47.896Z,98573.38
2022-09-23T00:37:51.106Z,98565.66
2022-09-23T00:40:56.734Z,98549.88
2022-09-23T00:44:01.524Z,98564.41
2022-09-23T00:47:05.094Z,98564.41
2022-09-23T00:50:22.294Z,98561.22
2022-09-23T00:53:27.613Z,98543.97
2022-09-23T00:56:33.900Z,98551.50
2022-09-23T00:59:37.909Z,98541.25
2022-09-23T01:02:42.114Z,98540.28
2022-09-23T01:05:45.991Z,98546.50
2022-09-23T01:08:50.752Z,98539.69
2022-09-23T01:12:05.236Z,98551.84
2022-09-23T01:15:15.608Z,98524.53
2022-09-23T01:18:33.031Z,98547.47
2022-09-23T01:21:47.848Z,98546.69
2022-09-23T01:25:09.310Z,98554.16
2022-09-23T01:28:31.803Z,98545.13
2022-09-23T01:31:41.575Z,98540.09
2022-09-23T01:34:50.588Z,98524.97
2022-09-23T01:38:01.152Z,98541.31
2022-09-23T01:41:15.391Z,98538.72
2022-09-23T01:44:24.009Z,98525.34
2022-09-23T01:47:35.687Z,98536.38
2022-09-23T01:50:59.706Z,98532.09
2022-09-23T01:54:08.414Z,98537.34
2022-09-23T01:57:16.108Z,98529.66
2022-09-23T02:00:22.315Z,98529.66
2022-09-23T02:03:32.340Z,98505.16
2022-09-23T02:06:39.534Z,98533.16
2022-09-23T02:09:45.475Z,98525.47
2022-09-23T02:12:53.963Z,98528.03
2022-09-23T02:16:02.067Z,98521.22
2022-09-23T02:19:08.226Z,98533.94
2022-09-23T02:22:17.478Z,98524.66
2022-09-23T02:25:25.804Z,98521.25
2022-09-23T02:28:35.106Z,98522.19
2022-09-23T02:31:43.490Z,98522.19
2022-09-23T02:34:58.344Z,98522.19
2022-09-23T02:38:08.937Z,98530.72
2022-09-23T02:41:17.152Z,98517.94
2022-09-23T02:44:24.046Z,98516.03
2022-09-23T02:47:32.830Z,98514.53
2022-09-23T02:50:39.094Z,98514.50
2022-09-23T02:53:43.279Z,98520.53
2022-09-23T02:56:52.042Z,98521.41
2022-09-23T02:59:55.883Z,98511.19
2022-09-23T03:03:32.551Z,98517.06
2022-09-23T03:06:49.056Z,98511.19
2022-09-23T03:09:57.309Z,98516.44
2022-09-23T03:13:12.226Z,98515.50
2022-09-23T03:16:26.237Z,98507.97
2022-09-23T03:19:34.280Z,98512.16
2022-09-23T03:22:45.838Z,98508.94
2022-09-23T03:25:54.209Z,98505.63
2022-09-23T03:28:57.727Z,98506.47
2022-09-23T03:35:10.150Z,98507.16
2022-09-23T03:38:17.374Z,98501.31
2022-09-23T03:41:29.056Z,98479.66
2022-09-23T03:44:37.844Z,98498.72
2022-09-23T03:47:42.289Z,98469.34
2022-09-23T03:50:46.825Z,98491.16
2022-09-23T03:53:50.188Z,98475.31
2022-09-23T03:56:57.621Z,98487.94
2022-09-23T04:00:04.581Z,98486.84
2022-09-23T04:03:15.612Z,98478.47
2022-09-23T04:06:20.510Z,98478.28
2022-09-23T04:09:24.600Z,98479.19
2022-09-23T04:12:27.815Z,98483.06
2022-09-23T04:15:30.944Z,98462.03
2022-09-23T04:18:34.238Z,98468.88
2022-09-23T04:21:39.110Z,98464.88
2022-09-23T04:24:42.378Z,98466.28
2022-09-23T04:27:45.637Z,98464.69
2022-09-23T04:30:49.355Z,98469.03
2022-09-23T04:33:54.266Z,98430.84
2022-09-23T04:36:58.940Z,98465.63
2022-09-23T04:40:02.721Z,98465.66
2022-09-23T04:43:05.876Z,98462.31
2022-09-23T04:46:11.090Z,98466.63
2022-09-23T04:49:14.470Z,98459.97
2022-09-23T04:52:19.174Z,98459.94
2022-09-23T04:55:22.936Z,98454.88
2022-09-23T04:58:26.266Z,98452.28
2022-09-23T05:01:38.400Z,98446.34
2022-09-23T05:04:41.779Z,98455.63
2022-09-23T05:07:46.261Z,98459.13
2022-09-23T05:10:49.749Z,98411.59
2022-09-23T05:13:55.073Z,98465.09
2022-09-23T05:16:58.207Z,98472.72
2022-09-23T05:20:01.357Z,98470.13
2022-09-23T05:23:06.030Z,98469.34
2022-09-23T05:26:11.741Z,98467.56
2022-09-23T05:29:15.103Z,98478.41
2022-09-23T05:32:18.392Z,98480.25
2022-09-23T05:35:21.587Z,98472.72
2022-09-23T05:38:26.282Z,98455.25
2022-09-23T05:41:29.841Z,98469.22
2022-09-23T05:44:33.060Z,98472.47
2022-09-23T05:47:36.157Z,98472.06
2022-09-23T05:50:39.244Z,98476.75
2022-09-23T05:53:45.343Z,98471.00
2022-09-23T05:56:48.462Z,98480.38
2022-09-23T05:59:51.741Z,98475.94
2022-09-23T06:02:56.653Z,98473.31
2022-09-23T06:06:01.281Z,98473.69
2022-09-23T06:09:06.460Z,98467.72
2022-09-23T06:12:14.075Z,98401.13
2022-09-23T06:15:18.217Z,98413.69
2022-09-23T06:18:21.231Z,98454.09
2022-09-23T06:21:24.437Z,98460.97
2022-09-23T06:24:31.476Z,98453.72
2022-09-23T06:27:35.057Z,98440.88
2022-09-23T06:30:39.171Z,98432.66
2022-09-23T06:33:43.770Z,98443.19
2022-09-23T06:36:46.979Z,98439.59
2022-09-23T06:39:52.539Z,98442.41
2022-09-23T06:42:58.867Z,98440.47
2022-09-23T06:46:04.746Z,98438.50
2022-09-23T06:49:07.909Z,98442.22
2022-09-23T06:52:11.443Z,98444.53
2022-09-23T06:55:18.659Z,98439.09
2022-09-23T06:58:21.820Z,98444.94
2022-09-23T07:01:25.013Z,98440.78
2022-09-23T07:04:29.425Z,98438.09
2022-09-23T07:07:32.838Z,98433.38
2022-09-23T07:10:37.903Z,98429.19
2022-09-23T07:13:42.158Z,98424.28
2022-09-23T07:16:45.325Z,98419.34
2022-09-23T07:19:48.548Z,98416.19
2022-09-23T07:22:52.505Z,98419.44
2022-09-23T07:25:59.797Z,98407.66
2022-09-23T07:29:05.076Z,98394.56
2022-09-23T07:32:13.586Z,98399.97
2022-09-23T07:35:17.665Z,98402.03
2022-09-23T07:38:20.771Z,98398.50
2022-09-23T07:41:26.010Z,98391.47
2022-09-23T07:44:31.913Z,98378.56
2022-09-23T07:47:35.055Z,98408.91
2022-09-23T07:50:40.344Z,98389.47
2022-09-23T07:53:43.865Z,98390.34
2022-09-23T07:56:48.619Z,98388.97
2022-09-23T07:59:51.739Z,98385.41
2022-09-23T08:02:55.114Z,98389.13
2022-09-23T08:06:05.331Z,98388.47
2022-09-23T08:09:09.305Z,98383.94
2022-09-23T08:12:16.854Z,98376.91
2022-09-23T08:15:20.405Z,98371.38
2022-09-23T08:18:23.564Z,98372.72
2022-09-23T08:21:26.829Z,98377.72
2022-09-23T08:24:32.187Z,98368.41
2022-09-23T08:27:36.687Z,98370.22
2022-09-23T08:30:40.628Z,98364.03
2022-09-23T08:33:43.744Z,98369.59
2022-09-23T08:36:47.211Z,98365.44
2022-09-23T08:39:50.296Z,98357.72
2022-09-23T08:42:54.790Z,98353.59
2022-09-23T08:46:03.690Z,98354.97
2022-09-23T08:49:08.278Z,98347.03
2022-09-23T08:52:17.742Z,98344.44
2022-09-23T08:55:24.368Z,98332.22
2022-09-23T08:58:50.940Z,98344.47
2022-09-23T09:01:58.975Z,98336.94
2022-09-23T09:05:03.697Z,98334.56
2022-09-23T09:08:06.829Z,98330.72
2022-09-23T09:11:13.672Z,98328.88
2022-09-23T09:14:23.316Z,98307.41
2022-09-23T09:17:36.457Z,98320.59
2022-09-23T09:20:42.168Z,98315.75
2022-09-23T09:23:52.565Z,98306.50
2022-09-23T09:26:55.667Z,98308.19
2022-09-23T09:30:01.788Z,98314.31
2022-09-23T09:35:20.100Z,98294.59
2022-09-23T09:38:23.332Z,98308.06
2022-09-23T09:41:31.361Z,98303.50
2022-09-23T09:44:41.563Z,98270.06
2022-09-23T09:47:52.656Z,98290.88
2022-09-23T09:50:58.117Z,98281.81
2022-09-23T09:54:18.267Z,98284.00
2022-09-23T09:57:35.146Z,98255.66
2022-09-23T10:00:44.243Z,98263.34
2022-09-23T10:03:48.988Z,98252.63
2022-09-23T10:07:09.386Z,98242.94
2022-09-23T10:10:31.766Z,98241.38
2022-09-23T10:13:37.915Z,98234.41
2022-09-23T10:16:42.527Z,98234.88
2022-09-23T10:19:49.345Z,98240.19
2022-09-23T10:22:56.700Z,98236.63
2022-09-23T10:26:02.842Z,98232.06
2022-09-23T10:29:24.000Z,98221.91
2022-09-23T10:32:30.541Z,98241.28
2022-09-23T10:35:34.371Z,98231.41
2022-09-23T10:38:39.322Z,98224.16
2022-09-23T10:42:07.509Z,98207.91
2022-09-23T10:45:39.749Z,98213.09
2022-09-23T10:48:55.743Z,98216.38
2022-09-23T10:52:11.472Z,98215.44
2022-09-23T10:55:32.747Z,98202.41
2022-09-23T10:58:58.204Z,98203.50
2022-09-23T11:02:39.088Z,98191.88
2022-09-23T11:06:15.160Z,98193.50
2022-09-23T11:09:49.788Z,98195.75
2022-09-23T11:13:26.290Z,98187.91
2022-09-23T11:17:14.716Z,98186.41
2022-09-23T11:20:48.800Z,98183.78
2022-09-23T11:24:40.353Z,98187.69
2022-09-23T11:28:27.135Z,98181.00
2022-09-23T11:33:43.345Z,98139.84
2022-09-23T11:37:14.250Z,98160.03
2022-09-23T11:40:42.399Z,98158.81
2022-09-23T11:59:00.002Z,98149.31
2022-09-23T12:13:58.142Z,98132.19
2022-09-23T12:18:38.345Z,98129.66
2022-09-23T12:21:56.529Z,98122.06
2022-09-23T12:25:10.310Z,98102.81
2022-09-23T12:28:18.350Z,98119.75
2022-09-23T12:31:22.951Z,98102.50
2022-09-23T12:34:31.564Z,98109.75
2022-09-23T12:37:37.998Z,98100.22
2022-09-23T12:40:43.891Z,98097.38
2022-09-23T12:43:56.206Z,98099.03
2022-09-23T12:47:41.349Z,98090.56
2022-09-23T12:50:54.843Z,98083.53
2022-09-23T12:54:26.334Z,98078.22
2022-09-23T12:57:42.648Z,98076.81
2022-09-23T13:01:09.224Z,98075.63
2022-09-23T13:04:49.792Z,98075.31
2022-09-23T13:08:01.200Z,98059.09
2022-09-23T13:11:08.446Z,98044.63
2022-09-23T13:14:16.480Z,98059.72
2022-09-23T13:17:30.413Z,98067.16
2022-09-23T13:20:38.280Z,98067.06
2022-09-23T13:24:17.499Z,98055.66
2022-09-23T13:27:28.506Z,98050.75
2022-09-23T13:30:31.598Z,98045.69
2022-09-23T13:33:44.895Z,98041.53
2022-09-23T13:36:49.352Z,98039.03
2022-09-23T13:39:53.914Z,98037.84
2022-09-23T13:43:00.496Z,98026.50
2022-09-23T13:46:05.232Z,98024.41
2022-09-23T13:49:22.620Z,98024.13
2022-09-23T13:52:29.811Z,97994.66
2022-09-23T13:55:37.381Z,98022.75
2022-09-23T13:58:40.779Z,98021.41
2022-09-23T14:01:44.102Z,98017.00
2022-09-23T14:04:47.724Z,97996.56
2022-09-23T14:07:51.725Z,98023.44
2022-09-23T14:10:57.054Z,98013.69
2022-09-23T14:14:05.993Z,98021.22
2022-09-23T14:17:14.189Z,97996.50
2022-09-23T14:20:18.745Z,98010.28
2022-09-23T14:23:22.102Z,98014.25
2022-09-23T14:26:27.453Z,98007.91
2022-09-23T14:29:33.841Z,97976.56
2022-09-23T14:32:37.096Z,98001.06
2022-09-23T14:35:42.832Z,97994.59
2022-09-23T14:38:51.147Z,97986.97
2022-09-23T14:41:56.489Z,97991.50
2022-09-23T14:44:59.631Z,97990.56
2022-09-23T14:48:08.288Z,97981.91
2022-09-23T14:51:16.206Z,97973.50
2022-09-23T14:54:35.584Z,97982.59
2022-09-23T14:57:41.141Z,97985.31
2022-09-23T15:00:54.087Z,97970.03
2022-09-23T15:03:58.547Z,97972.75
2022-09-23T15:07:06.286Z,97979.88
2022-09-23T15:10:17.174Z,97963.91
2022-09-23T15:13:24.921Z,97974.75
2022-09-23T15:16:29.052Z,97963.94
2022-09-23T15:19:32.548Z,97964.56
2022-09-23T15:22:44.623Z,97964.16
2022-09-23T15:25:52.711Z,97961.13
2022-09-23T15:29:01.288Z,97959.78
2022-09-23T15:35:12.388Z,97961.31
2022-09-23T15:38:17.454Z,97959.16
2022-09-23T15:41:21.941Z,97934.72
2022-09-23T15:44:29.429Z,97955.19
2022-09-23T15:47:33.151Z,97947.66
2022-09-23T15:50:38.649Z,97948.13
2022-09-23T15:53:42.767Z,97942.88
2022-09-23T15:56:47.847Z,97943.75
2022-09-23T15:59:51.157Z,97956.81
2022-09-23T16:02:55.239Z,97947.53
2022-09-23T16:06:03.057Z,97923.72
2022-09-23T16:09:09.229Z,97941.88
2022-09-23T16:12:13.214Z,97957.03
2022-09-23T16:15:18.927Z,97871.25
2022-09-23T16:18:22.186Z,97949.00
2022-09-23T16:21:35.938Z,97917.72
2022-09-23T16:24:39.158Z,97946.00
2022-09-23T16:27:42.306Z,97939.69
2022-09-23T16:30:45.545Z,97938.44
2022-09-23T16:33:51.287Z,97932.66
2022-09-23T16:36:55.741Z,97929.78
2022-09-23T16:39:59.396Z,97928.84
2022-09-23T16:43:05.297Z,97932.66
2022-09-23T16:46:09.033Z,97933.25
2022-09-23T16:49:13.676Z,97931.91
2022-09-23T16:52:18.221Z,97932.19
2022-09-23T16:55:21.937Z,97945.00
2022-09-23T16:58:25.490Z,97942.75
2022-09-23T17:01:47.903Z,97950.44
2022-09-23T17:04:51.071Z,97951.38
2022-09-23T17:07:55.573Z,97947.84
2022-09-23T17:11:00.960Z,97935.91
2022-09-23T17:14:05.044Z,97940.88
2022-09-23T17:17:08.191Z,97960.81
2022-09-23T17:20:13.103Z,97978.06
2022-09-23T17:23:17.968Z,97978.41
2022-09-23T17:26:23.339Z,97974.72
2022-09-23T17:29:26.948Z,97976.06
2022-09-23T17:32:30.312Z,97973.63
2022-09-23T17:35:33.664Z,97978.56
2022-09-23T17:38:39.322Z,97981.34
2022-09-23T17:41:42.516Z,97974.69
2022-09-23T17:44:46.221Z,97982.22
2022-09-23T17:47:52.201Z,97994.13
2022-09-23T17:50:56.369Z,97991.38
2022-09-23T17:54:00.825Z,97992.44
2022-09-23T17:57:04.500Z,97974.31
2022-09-23T18:00:10.098Z,97992.31
2022-09-23T18:03:15.977Z,97993.31
2022-09-23T18:06:21.147Z,97996.75
2022-09-23T18:09:25.658Z,97995.00
2022-09-23T18:12:28.978Z,97991.94
2022-09-23T18:15:32.199Z,97997.06
2022-09-23T18:18:35.298Z,97992.75
2022-09-23T18:21:40.917Z,97995.81
2022-09-23T18:24:45.571Z,97995.66
2022-09-23T18:27:48.726Z,98000.16
2022-09-23T18:30:55.485Z,97997.34
2022-09-23T18:33:58.756Z,98004.88
2022-09-23T18:37:15.002Z,98001.53
2022-09-23T18:40:20.452Z,98005.13
2022-09-23T18:43:25.791Z,97994.75
2022-09-23T18:46:30.776Z,97999.94
2022-09-23T18:49:51.837Z,98001.16
2022-09-23T18:52:55.171Z,98000.31
2022-09-23T18:55:59.703Z,98005.09
2022-09-23T18:59:03.058Z,98001.31
2022-09-23T19:02:06.366Z,98013.63
2022-09-23T19:05:10.318Z,98009.63
2022-09-23T19:08:13.445Z,97985.81
2022-09-23T19:11:18.355Z,98007.78
2022-09-23T19:14:22.236Z,98013.44
2022-09-23T19:17:25.621Z,98024.38
2022-09-23T19:20:29.250Z,98019.75
2022-09-23T19:23:34.617Z,98025.09
2022-09-23T19:26:41.529Z,98025.50
2022-09-23T19:29:47.436Z,98027.25
2022-09-23T19:32:51.982Z,98028.59
2022-09-23T19:35:55.117Z,98027.16
2022-09-23T19:38:59.627Z,98023.66
2022-09-23T19:42:04.488Z,98023.69
2022-09-23T19:45:08.292Z,98031.34
2022-09-23T19:48:11.786Z,98020.31
2022-09-23T19:51:15.238Z,98020.59
2022-09-23T19:54:20.768Z,98007.28
2022-09-23T19:57:33.365Z,98010.91
2022-09-23T20:00:36.770Z,98014.97
2022-09-23T20:03:40.262Z,98005.22
2022-09-23T20:06:43.731Z,97985.41
2022-09-23T20:09:46.777Z,98000.28
2022-09-23T20:12:51.336Z,98004.22
2022-09-23T20:15:54.721Z,97987.66
2022-09-23T20:18:59.600Z,97996.78
2022-09-23T20:22:20.572Z,98003.78
2022-09-23T20:25:23.857Z,97989.66
2022-09-23T20:28:27.348Z,97973.34
2022-09-23T20:31:31.503Z,97984.84
2022-09-23T20:34:34.826Z,97978.06
2022-09-23T20:37:37.945Z,97983.44
2022-09-23T20:40:41.165Z,97985.91
2022-09-23T20:43:45.919Z,97988.06
2022-09-23T20:46:50.486Z,97983.31
2022-09-23T20:49:54.003Z,97985.88
2022-09-23T20:52:57.595Z,97986.69
2022-09-23T20:56:00.868Z,97991.56
2022-09-23T20:59:06.311Z,97992.94
2022-09-23T21:02:11.114Z,97994.19
2022-09-23T21:05:14.655Z,98002.38
2022-09-23T21:08:18.200Z,97992.69
2022-09-23T21:11:21.882Z,97992.13
2022-09-23T21:14:26.442Z,98005.88
2022-09-23T21:17:29.759Z,98001.72
2022-09-23T21:20:33.011Z,98002.75
2022-09-23T21:23:39.051Z,97995.59
2022-09-23T21:26:44.386Z,97994.50
2022-09-23T21:29:48.907Z,97993.03
2022-09-23T21:35:09.907Z,98003.47
2022-09-23T21:38:13.056Z,97993.72
2022-09-23T21:41:16.324Z,97988.09
2022-09-23T21:44:19.605Z,97989.47
2022-09-23T21:47:23.285Z,97997.75
2022-09-23T21:50:30.061Z,97993.03
2022-09-23T21:53:34.920Z,97992.75
2022-09-23T21:56:38.422Z,97992.59
2022-09-23T21:59:41.811Z,97992.31
2022-09-23T22:02:44.907Z,97972.88
2022-09-23T22:06:01.711Z,97973.50
2022-09-23T22:09:09.210Z,97967.97
2022-09-23T22:12:13.077Z,97961.75
2022-09-23T22:15:20.354Z,97956.84
2022-09-23T22:18:23.503Z,97966.19
2022-09-23T22:21:31.229Z,97960.56
2022-09-23T22:24:34.410Z,97956.78
2022-09-23T22:27:58.060Z,97965.75
2022-09-23T22:31:18.632Z,97952.72
2022-09-23T22:34:47.865Z,97957.31
2022-09-23T22:37:48.440Z,97951.81
2022-09-23T22:40:51.701Z,97968.09
2022-09-23T22:43:55.002Z,97965.00
2022-09-23T22:46:59.421Z,97965.81
2022-09-23T22:50:02.837Z,97977.25
2022-09-23T22:53:09.035Z,97985.00
2022-09-23T22:56:12.313Z,97976.66
2022-09-23T22:59:15.553Z,97986.81
2022-09-23T23:02:21.442Z,97973.88
2022-09-23T23:05:25.429Z,97978.91
2022-09-23T23:08:30.414Z,97972.34
2022-09-23T23:11:33.823Z,97977.00
2022-09-23T23:14:37.752Z,97960.19
2022-09-23T23:17:43.648Z,97971.06
2022-09-23T23:20:46.941Z,97972.50
2022-09-23T23:23:53.333Z,97981.41
2022-09-23T23:26:56.843Z,97963.47
2022-09-23T23:30:00.055Z,97964.63
2022-09-23T23:33:03.290Z,97971.00
2022-09-23T23:36:07.772Z,97939.34
2022-09-23T23:39:12.959Z,97973.28
2022-09-23T23:42:16.223Z,97972.63
2022-09-23T23:45:19.345Z,97972.28
2022-09-23T23:48:22.434Z,97964.06
2022-09-23T23:51:27.303Z,97960.88
2022-09-23T23:54:32.939Z,97951.06
2022-09-23T23:57:36.303Z,97957.41
